createdAt,value
2023-04-09T00:02:18.244Z,102043.00
2023-04-09T00:04:45.375Z,102042.25
2023-04-09T00:07:12.639Z,102034.38
2023-04-09T00:09:40.641Z,102040.84
2023-04-09T00:12:07.714Z,102030.59
2023-04-09T00:14:38.078Z,102034.28
2023-04-09T00:17:05.885Z,102039.97
2023-04-09T00:19:33.904Z,102037.47
2023-04-09T00:22:01.188Z,102035.81
2023-04-09T00:24:28.304Z,102032.44
2023-04-09T00:26:56.689Z,102029.13
2023-04-09T00:29:28.736Z,102039.13
2023-04-09T00:31:56.309Z,102025.09
2023-04-09T00:34:23.473Z,102025.19
2023-04-09T00:36:50.867Z,102018.94
2023-04-09T00:39:18.039Z,102022.53
2023-04-09T00:41:45.074Z,102010.31
2023-04-09T00:44:12.406Z,102007.75
2023-04-09T00:46:40.136Z,102005.22
2023-04-09T00:49:07.574Z,102004.44
2023-04-09T00:51:35.382Z,101996.66
2023-04-09T00:54:02.618Z,101989.66
2023-04-09T00:56:30.572Z,101989.75
2023-04-09T00:58:58.058Z,101989.03
2023-04-09T01:01:25.292Z,101989.13
2023-04-09T01:03:52.659Z,101983.84
2023-04-09T01:06:34.374Z,101983.16
2023-04-09T01:09:43.224Z,101976.09
2023-04-09T01:12:46.924Z,101963.97
2023-04-09T01:15:26.020Z,101967.50
2023-04-09T01:18:05.179Z,101963.97
2023-04-09T01:20:42.855Z,101964.06
2023-04-09T01:23:41.650Z,101961.44
2023-04-09T01:26:53.489Z,101959.66
2023-04-09T01:29:23.859Z,101953.56
2023-04-09T01:31:52.386Z,101947.38
2023-04-09T01:34:22.357Z,101949.97
2023-04-09T01:36:56.440Z,101949.16
2023-04-09T01:39:24.273Z,101948.38
2023-04-09T01:41:52.040Z,101946.66
2023-04-09T01:44:22.006Z,101932.59
2023-04-09T01:46:51.160Z,101940.56
2023-04-09T01:49:19.575Z,101936.97
2023-04-09T01:51:48.526Z,101929.00
2023-04-09T01:54:17.480Z,101927.28
2023-04-09T01:56:46.278Z,101924.69
2023-04-09T01:59:13.756Z,101921.97
2023-04-09T02:01:59.105Z,101918.53
2023-04-09T02:04:42.017Z,101922.09
2023-04-09T02:07:27.458Z,101915.00
2023-04-09T02:09:55.128Z,101914.13
2023-04-09T02:12:23.497Z,101902.66
2023-04-09T02:14:52.958Z,101900.84
2023-04-09T02:17:20.614Z,101900.94
2023-04-09T02:19:48.562Z,101892.97
2023-04-09T02:22:17.569Z,101897.34
2023-04-09T02:24:44.864Z,101897.41
2023-04-09T02:27:11.848Z,101893.84
2023-04-09T02:29:40.337Z,101889.28
2023-04-09T02:32:07.836Z,101892.81
2023-04-09T02:34:34.886Z,101887.50
2023-04-09T02:37:02.373Z,101889.38
2023-04-09T02:39:29.431Z,101882.34
2023-04-09T02:41:56.704Z,101884.91
2023-04-09T02:44:24.955Z,101883.19
2023-04-09T02:46:55.133Z,101881.31
2023-04-09T02:49:23.601Z,101885.78
2023-04-09T02:51:51.130Z,101878.66
2023-04-09T02:54:18.973Z,101877.03
2023-04-09T02:56:45.995Z,101872.50
2023-04-09T02:59:12.970Z,101877.88
2023-04-09T03:01:40.061Z,101875.22
2023-04-09T03:04:07.335Z,101872.56
2023-04-09T03:06:34.830Z,101867.41
2023-04-09T03:09:01.896Z,101869.97
2023-04-09T03:11:28.887Z,101862.09
2023-04-09T03:13:56.092Z,101862.09
2023-04-09T03:16:25.466Z,101858.47
2023-04-09T03:18:52.789Z,101856.78
2023-04-09T03:21:20.046Z,101854.03
2023-04-09T03:23:47.023Z,101853.16
2023-04-09T03:26:14.050Z,101849.59
2023-04-09T03:28:41.194Z,101855.81
2023-04-09T03:31:08.259Z,101853.13
2023-04-09T03:33:35.347Z,101845.19
2023-04-09T03:36:02.377Z,101844.41
2023-04-09T03:38:29.596Z,101839.88
2023-04-09T03:40:57.402Z,101839.88
2023-04-09T03:43:24.396Z,101837.31
2023-04-09T03:45:51.429Z,101832.78
2023-04-09T03:48:18.648Z,101827.47
2023-04-09T03:50:45.743Z,101831.91
2023-04-09T03:53:12.717Z,101825.78
2023-04-09T03:55:39.935Z,101828.34
2023-04-09T03:58:07.043Z,101821.28
2023-04-09T04:00:34.006Z,101825.69
2023-04-09T04:03:01.378Z,101822.16
2023-04-09T04:05:28.629Z,101809.84
2023-04-09T04:07:55.769Z,101809.75
2023-04-09T04:10:22.857Z,101797.31
2023-04-09T04:12:49.934Z,101802.63
2023-04-09T04:15:17.270Z,101804.38
2023-04-09T04:17:45.801Z,101794.59
2023-04-09T04:20:13.151Z,101791.91
2023-04-09T04:22:40.337Z,101783.94
2023-04-09T04:25:07.506Z,101791.88
2023-04-09T04:27:34.705Z,101787.41
2023-04-09T04:30:02.571Z,101781.16
2023-04-09T04:32:30.101Z,101782.09
2023-04-09T04:34:57.180Z,101785.69
2023-04-09T04:37:24.289Z,101779.50
2023-04-09T04:39:51.731Z,101777.72
2023-04-09T04:42:18.822Z,101774.13
2023-04-09T04:44:46.191Z,101773.19
2023-04-09T04:47:13.879Z,101766.16
2023-04-09T04:49:41.123Z,101775.84
2023-04-09T04:52:08.309Z,101773.19
2023-04-09T04:54:35.635Z,101776.78
2023-04-09T04:57:03.286Z,101772.41
2023-04-09T04:59:30.322Z,101771.28
2023-04-09T05:01:57.649Z,101767.72
2023-04-09T05:04:24.792Z,101760.53
2023-04-09T05:06:51.811Z,101756.94
2023-04-09T05:09:21.183Z,101755.06
2023-04-09T05:11:49.288Z,101756.94
2023-04-09T05:14:16.598Z,101755.06
2023-04-09T05:16:43.797Z,101762.09
2023-04-09T05:19:10.899Z,101758.34
2023-04-09T05:21:38.234Z,101750.50
2023-04-09T05:24:05.580Z,101750.69
2023-04-09T05:26:32.584Z,101752.81
2023-04-09T05:28:59.611Z,101757.63
2023-04-09T05:31:27.559Z,101744.78
2023-04-09T05:33:54.832Z,101750.63
2023-04-09T05:36:21.870Z,101737.94
2023-04-09T05:38:48.990Z,101741.22
2023-04-09T05:41:17.288Z,101739.38
2023-04-09T05:43:45.394Z,101736.34
2023-04-09T05:46:12.937Z,101739.88
2023-04-09T05:48:40.151Z,101733.47
2023-04-09T05:51:07.356Z,101739.03
2023-04-09T05:53:34.712Z,101735.69
2023-04-09T05:56:04.088Z,101726.75
2023-04-09T05:58:31.131Z,101725.72
2023-04-09T06:00:58.502Z,101716.88
2023-04-09T06:03:25.722Z,101716.72
2023-04-09T06:05:56.306Z,101722.91
2023-04-09T06:08:23.247Z,101724.38
2023-04-09T06:10:50.228Z,101722.66
2023-04-09T06:13:17.196Z,101713.69
2023-04-09T06:15:44.225Z,101711.69
2023-04-09T06:18:11.443Z,101712.69
2023-04-09T06:20:38.479Z,101711.94
2023-04-09T06:23:06.135Z,101707.56
2023-04-09T06:25:33.799Z,101698.38
2023-04-09T06:28:01.325Z,101700.81
2023-04-09T06:30:28.292Z,101708.13
2023-04-09T06:32:55.691Z,101706.94
2023-04-09T06:35:23.683Z,101705.75
2023-04-09T06:37:51.605Z,101700.28
2023-04-09T06:40:20.109Z,101698.31
2023-04-09T06:42:48.462Z,101692.75
2023-04-09T06:45:16.171Z,101690.84
2023-04-09T06:47:43.415Z,101693.69
2023-04-09T06:50:11.010Z,101691.81
2023-04-09T06:52:38.106Z,101690.78
2023-04-09T06:55:05.637Z,101686.13
2023-04-09T06:57:32.637Z,101687.78
2023-04-09T06:59:59.614Z,101692.06
2023-04-09T07:02:26.992Z,101691.91
2023-04-09T07:04:54.124Z,101694.41
2023-04-09T07:10:10.309Z,101698.78
2023-04-09T07:12:37.559Z,101700.66
2023-04-09T07:15:07.080Z,101688.91
2023-04-09T07:17:35.156Z,101699.56
2023-04-09T07:20:02.390Z,101696.88
2023-04-09T07:22:31.428Z,101692.34
2023-04-09T07:24:59.668Z,101693.97
2023-04-09T07:27:28.318Z,101704.59
2023-04-09T07:29:59.685Z,101687.78
2023-04-09T07:32:31.281Z,101701.72
2023-04-09T07:34:59.779Z,101691.91
2023-04-09T07:37:27.587Z,101688.31
2023-04-09T07:39:54.905Z,101686.41
2023-04-09T07:42:22.500Z,101683.69
2023-04-09T07:44:55.862Z,101679.19
2023-04-09T07:47:24.387Z,101682.06
2023-04-09T07:49:52.143Z,101671.47
2023-04-09T07:52:20.691Z,101671.41
2023-04-09T07:54:47.954Z,101677.66
2023-04-09T07:57:18.171Z,101679.47
2023-04-09T07:59:45.560Z,101676.91
2023-04-09T08:02:15.011Z,101686.56
2023-04-09T08:04:42.774Z,101683.47
2023-04-09T08:07:13.458Z,101676.91
2023-04-09T08:09:40.867Z,101683.94
2023-04-09T08:12:08.765Z,101674.94
2023-04-09T08:14:36.311Z,101675.63
2023-04-09T08:17:03.482Z,101676.16
2023-04-09T08:19:30.961Z,101671.19
2023-04-09T08:21:59.260Z,101671.19
2023-04-09T08:24:26.496Z,101673.03
2023-04-09T08:26:53.801Z,101671.41
2023-04-09T08:29:21.144Z,101663.16
2023-04-09T08:31:48.306Z,101669.78
2023-04-09T08:34:16.539Z,101655.28
2023-04-09T08:36:47.141Z,101660.59
2023-04-09T08:39:14.176Z,101659.97
2023-04-09T08:41:45.236Z,101667.03
2023-04-09T08:44:12.544Z,101656.38
2023-04-09T08:46:39.763Z,101653.13
2023-04-09T08:49:11.406Z,101647.94
2023-04-09T08:51:39.754Z,101646.06
2023-04-09T08:54:07.870Z,101645.38
2023-04-09T08:56:35.710Z,101641.34
2023-04-09T08:59:03.044Z,101641.28
2023-04-09T09:01:32.238Z,101639.38
2023-04-09T09:04:09.910Z,101644.16
2023-04-09T09:06:39.338Z,101631.75
2023-04-09T09:09:13.685Z,101628.28
2023-04-09T09:11:48.883Z,101615.38
2023-04-09T09:14:19.668Z,101616.13
2023-04-09T09:16:59.137Z,101604.78
2023-04-09T09:19:26.594Z,101602.28
2023-04-09T09:22:02.255Z,101600.09
2023-04-09T09:24:30.076Z,101587.75
2023-04-09T09:27:00.062Z,101590.72
2023-04-09T09:29:28.045Z,101583.78
2023-04-09T09:31:56.639Z,101577.91
2023-04-09T09:34:25.406Z,101571.94
2023-04-09T09:36:52.607Z,101558.88
2023-04-09T09:39:19.969Z,101558.81
2023-04-09T09:41:47.606Z,101555.19
2023-04-09T09:44:32.313Z,101550.84
2023-04-09T09:46:59.980Z,101537.81
2023-04-09T09:49:27.129Z,101539.19
2023-04-09T09:51:58.995Z,101523.16
2023-04-09T09:54:28.686Z,101530.97
2023-04-09T09:57:03.325Z,101530.66
2023-04-09T09:59:37.995Z,101529.53
2023-04-09T10:02:07.919Z,101524.84
2023-04-09T10:04:38.606Z,101515.84
2023-04-09T10:07:08.042Z,101505.91
2023-04-09T10:09:38.351Z,101507.47
2023-04-09T10:12:07.786Z,101497.44
2023-04-09T10:14:36.608Z,101494.78
2023-04-09T10:17:04.595Z,101484.69
2023-04-09T10:19:36.091Z,101488.03
2023-04-09T10:22:11.962Z,101472.09
2023-04-09T10:24:39.606Z,101464.00
2023-04-09T10:27:15.910Z,101457.88
2023-04-09T10:29:45.867Z,101445.94
2023-04-09T10:32:14.011Z,101443.28
2023-04-09T10:34:45.423Z,101437.84
2023-04-09T10:37:30.736Z,101428.19
2023-04-09T10:39:58.689Z,101414.03
2023-04-09T10:42:40.756Z,101416.53
2023-04-09T10:45:09.676Z,101413.59
2023-04-09T10:47:41.792Z,101404.00
2023-04-09T10:50:17.516Z,101388.81
2023-04-09T10:52:44.998Z,101388.81
2023-04-09T10:55:35.584Z,101382.19
2023-04-09T10:58:04.817Z,101376.31
2023-04-09T11:00:32.256Z,101368.50
2023-04-09T11:03:02.329Z,101372.09
2023-04-09T11:05:38.840Z,101368.09
2023-04-09T11:08:15.141Z,101364.91
2023-04-09T11:10:45.125Z,101374.25
2023-04-09T11:13:14.453Z,101370.41
2023-04-09T11:15:41.523Z,101359.69
2023-04-09T11:18:12.601Z,101360.28
2023-04-09T11:20:40.647Z,101359.84
2023-04-09T11:23:08.240Z,101360.69
2023-04-09T11:25:35.996Z,101357.00
2023-04-09T11:28:05.305Z,101355.09
2023-04-09T11:30:34.805Z,101359.56
2023-04-09T11:33:02.838Z,101347.22
2023-04-09T11:35:30.133Z,101343.13
2023-04-09T11:37:57.540Z,101348.63
2023-04-09T11:40:27.020Z,101347.94
2023-04-09T11:42:55.639Z,101347.94
2023-04-09T11:45:27.666Z,101351.38
2023-04-09T11:47:55.525Z,101340.19
2023-04-09T11:50:23.465Z,101341.16
2023-04-09T11:52:51.010Z,101336.84
2023-04-09T11:55:29.208Z,101339.16
2023-04-09T11:58:01.758Z,101337.47
2023-04-09T12:00:29.760Z,101342.94
2023-04-09T12:03:03.274Z,101340.19
2023-04-09T12:05:33.377Z,101345.69
2023-04-09T12:08:05.634Z,101344.81
2023-04-09T12:10:34.872Z,101327.88
2023-04-09T12:13:07.557Z,101323.88
2023-04-09T12:15:37.397Z,101315.28
2023-04-09T12:18:07.962Z,101317.28
2023-04-09T12:20:44.601Z,101317.75
2023-04-09T12:23:12.885Z,101324.50
2023-04-09T12:25:44.599Z,101318.94
2023-04-09T12:28:15.980Z,101304.59
2023-04-09T12:30:44.850Z,101297.06
2023-04-09T12:33:11.912Z,101294.34
2023-04-09T12:35:39.522Z,101287.84
2023-04-09T12:38:06.822Z,101288.59
2023-04-09T12:40:34.450Z,101280.25
2023-04-09T12:43:02.060Z,101278.28
2023-04-09T12:45:31.152Z,101278.09
2023-04-09T12:48:00.223Z,101273.59
2023-04-09T12:50:27.508Z,101288.06
2023-04-09T12:52:57.436Z,101280.06
2023-04-09T12:55:25.013Z,101281.78
2023-04-09T12:57:52.501Z,101278.19
2023-04-09T13:00:19.791Z,101284.34
2023-04-09T13:02:47.456Z,101280.91
2023-04-09T13:05:15.282Z,101274.38
2023-04-09T13:07:44.092Z,101275.31
2023-04-09T13:10:11.684Z,101266.09
2023-04-09T13:12:39.044Z,101250.13
2023-04-09T13:15:06.324Z,101250.72
2023-04-09T13:17:33.659Z,101254.22
2023-04-09T13:20:00.703Z,101246.91
2023-04-09T13:22:27.787Z,101237.22
2023-04-09T13:24:55.180Z,101224.19
2023-04-09T13:27:22.749Z,101220.03
2023-04-09T13:29:50.682Z,101205.84
2023-04-09T13:32:19.430Z,101193.72
2023-04-09T13:34:46.634Z,101190.88
2023-04-09T13:37:14.019Z,101190.59
2023-04-09T13:39:41.387Z,101188.13
2023-04-09T13:42:13.664Z,101184.13
2023-04-09T13:44:45.109Z,101191.03
2023-04-09T13:47:13.969Z,101174.41
2023-04-09T13:49:42.469Z,101175.00
2023-04-09T13:52:11.436Z,101166.16
2023-04-09T13:54:41.149Z,101158.31
2023-04-09T13:57:08.693Z,101145.19
2023-04-09T13:59:36.562Z,101156.09
2023-04-09T14:02:04.007Z,101148.78
2023-04-09T14:04:31.388Z,101142.06
2023-04-09T14:06:58.834Z,101125.63
2023-04-09T14:09:26.128Z,101129.69
2023-04-09T14:11:55.438Z,101129.06
2023-04-09T14:14:22.837Z,101129.63
2023-04-09T14:16:51.276Z,101128.88
2023-04-09T14:19:20.046Z,101115.94
2023-04-09T14:21:47.252Z,101117.66
2023-04-09T14:24:14.511Z,101114.41
2023-04-09T14:26:42.429Z,101124.78
2023-04-09T14:29:09.498Z,101122.41
2023-04-09T14:31:36.969Z,101118.00
2023-04-09T14:34:04.398Z,101111.25
2023-04-09T14:36:33.096Z,101116.22
2023-04-09T14:39:01.358Z,101107.38
2023-04-09T14:41:28.566Z,101100.19
2023-04-09T14:43:55.852Z,101105.50
2023-04-09T14:46:23.756Z,101096.06
2023-04-09T14:48:51.534Z,101083.38
2023-04-09T14:51:19.144Z,101084.53
2023-04-09T14:53:46.934Z,101082.03
2023-04-09T14:56:14.019Z,101068.16
2023-04-09T14:58:41.595Z,101061.50
2023-04-09T15:01:08.893Z,101054.84
2023-04-09T15:03:36.339Z,101049.03
2023-04-09T15:06:03.700Z,101032.69
2023-04-09T15:08:31.877Z,101037.59
2023-04-09T15:10:59.189Z,101033.69
2023-04-09T15:13:26.552Z,101028.81
2023-04-09T15:15:54.049Z,101021.38
2023-04-09T15:18:21.885Z,101023.41
2023-04-09T15:20:49.472Z,101011.47
2023-04-09T15:23:16.891Z,101017.97
2023-04-09T15:25:44.071Z,100998.81
2023-04-09T15:28:11.388Z,100995.72
2023-04-09T15:30:38.691Z,100997.03
2023-04-09T15:33:06.298Z,100966.25
2023-04-09T15:35:33.605Z,100988.81
2023-04-09T15:38:02.648Z,100967.94
2023-04-09T15:40:31.504Z,100961.00
2023-04-09T15:43:00.002Z,100941.91
2023-04-09T15:45:27.521Z,100929.97
2023-04-09T15:47:55.015Z,100895.84
2023-04-09T15:50:22.591Z,100913.97
2023-04-09T15:52:50.527Z,100931.97
2023-04-09T15:55:17.756Z,100929.31
2023-04-09T15:57:47.310Z,100925.06
2023-04-09T16:00:15.967Z,100938.28
2023-04-09T16:02:43.657Z,100937.88
2023-04-09T16:05:11.063Z,100927.88
2023-04-09T16:07:42.814Z,100930.28
2023-04-09T16:10:10.548Z,100920.28
2023-04-09T16:12:37.868Z,100921.88
2023-04-09T16:15:05.675Z,100910.03
2023-04-09T16:17:40.266Z,100899.88
2023-04-09T16:20:09.108Z,100892.44
2023-04-09T16:22:36.657Z,100891.91
2023-04-09T16:25:04.016Z,100893.25
2023-04-09T16:27:31.333Z,100898.97
2023-04-09T16:29:58.903Z,100892.34
2023-04-09T16:32:26.304Z,100892.97
2023-04-09T16:34:53.897Z,100893.34
2023-04-09T16:37:21.191Z,100884.19
2023-04-09T16:39:48.571Z,100882.03
2023-04-09T16:42:15.621Z,100878.28
2023-04-09T16:44:42.735Z,100869.91
2023-04-09T16:47:10.098Z,100868.72
2023-04-09T16:49:37.274Z,100872.00
2023-04-09T16:52:04.425Z,100864.41
2023-04-09T16:54:31.587Z,100865.63
2023-04-09T16:56:59.414Z,100870.50
2023-04-09T16:59:26.959Z,100866.59
2023-04-09T17:01:54.372Z,100859.41
2023-04-09T17:04:21.888Z,100861.56
2023-04-09T17:06:48.973Z,100853.09
2023-04-09T17:09:20.036Z,100861.38
2023-04-09T17:11:47.554Z,100853.13
2023-04-09T17:14:14.770Z,100835.03
2023-04-09T17:16:43.047Z,100837.59
2023-04-09T17:19:11.396Z,100824.09
2023-04-09T17:21:39.878Z,100836.38
2023-04-09T17:24:06.993Z,100840.75
2023-04-09T17:26:34.750Z,100834.22
2023-04-09T17:29:02.452Z,100825.97
2023-04-09T17:31:29.682Z,100819.13
2023-04-09T17:33:57.544Z,100827.63
2023-04-09T17:36:25.156Z,100824.09
2023-04-09T17:38:53.354Z,100817.94
2023-04-09T17:41:20.779Z,100804.69
2023-04-09T17:43:48.748Z,100803.59
2023-04-09T17:46:17.400Z,100796.56
2023-04-09T17:48:44.953Z,100796.19
2023-04-09T17:51:19.590Z,100789.75
2023-04-09T17:53:47.923Z,100783.56
2023-04-09T17:56:18.656Z,100786.63
2023-04-09T17:58:47.518Z,100777.63
2023-04-09T18:01:15.193Z,100773.97
2023-04-09T18:03:43.454Z,100776.03
2023-04-09T18:06:11.058Z,100764.53
2023-04-09T18:08:38.675Z,100769.13
2023-04-09T18:11:12.054Z,100761.97
2023-04-09T18:13:40.892Z,100761.97
2023-04-09T18:16:14.308Z,100760.28
2023-04-09T18:18:44.108Z,100766.34
2023-04-09T18:21:11.448Z,100767.31
2023-04-09T18:23:40.784Z,100769.13
2023-04-09T18:26:08.872Z,100764.78
2023-04-09T18:28:36.173Z,100739.75
2023-04-09T18:31:04.883Z,100728.34
2023-04-09T18:33:32.296Z,100730.16
2023-04-09T18:36:02.845Z,100730.31
2023-04-09T18:38:30.858Z,100739.03
2023-04-09T18:40:58.303Z,100735.50
2023-04-09T18:43:28.419Z,100735.41
2023-04-09T18:45:56.395Z,100731.25
2023-04-09T18:48:24.893Z,100729.81
2023-04-09T18:50:51.964Z,100723.00
2023-04-09T18:53:19.231Z,100717.56
2023-04-09T18:55:46.942Z,100716.34
2023-04-09T18:58:15.712Z,100716.34
2023-04-09T19:00:44.019Z,100711.00
2023-04-09T19:03:13.131Z,100705.06
2023-04-09T19:05:40.714Z,100699.75
2023-04-09T19:08:12.811Z,100704.47
2023-04-09T19:10:40.686Z,100693.06
2023-04-09T19:13:09.017Z,100694.03
2023-04-09T19:15:36.939Z,100694.88
2023-04-09T19:18:04.736Z,100695.25
2023-04-09T19:20:33.296Z,100693.69
2023-04-09T19:23:01.818Z,100692.22
2023-04-09T19:25:31.926Z,100685.28
2023-04-09T19:28:00.618Z,100675.69
2023-04-09T19:30:29.361Z,100675.56
2023-04-09T19:32:57.322Z,100674.84
2023-04-09T19:35:25.000Z,100682.22
2023-04-09T19:37:52.652Z,100678.72
2023-04-09T19:40:26.030Z,100656.78
2023-04-09T19:42:53.870Z,100655.06
2023-04-09T19:45:23.303Z,100657.16
2023-04-09T19:47:54.482Z,100656.38
2023-04-09T19:50:24.262Z,100649.25
2023-04-09T19:52:54.156Z,100645.47
2023-04-09T19:55:24.872Z,100646.34
2023-04-09T19:57:53.308Z,100643.78
2023-04-09T20:00:20.929Z,100635.66
2023-04-09T20:02:51.834Z,100624.28
2023-04-09T20:05:21.798Z,100619.28
2023-04-09T20:07:51.499Z,100609.97
2023-04-09T20:10:21.358Z,100619.91
2023-04-09T20:12:50.539Z,100611.91
2023-04-09T20:15:23.316Z,100612.16
2023-04-09T20:17:52.274Z,100610.41
2023-04-09T20:20:20.870Z,100606.06
2023-04-09T20:22:56.162Z,100596.25
2023-04-09T20:25:25.213Z,100595.25
2023-04-09T20:27:56.676Z,100591.66
2023-04-09T20:30:26.763Z,100592.81
2023-04-09T20:32:54.644Z,100600.25
2023-04-09T20:35:23.325Z,100588.72
2023-04-09T20:37:52.898Z,100592.25
2023-04-09T20:40:21.567Z,100588.34
2023-04-09T20:42:51.420Z,100589.34
2023-04-09T20:45:18.907Z,100579.16
2023-04-09T20:47:47.526Z,100584.16
2023-04-09T20:50:17.260Z,100576.25
2023-04-09T20:52:45.657Z,100578.44
2023-04-09T20:55:16.139Z,100573.84
2023-04-09T20:57:55.002Z,100571.16
2023-04-09T21:00:23.257Z,100565.13
2023-04-09T21:02:52.330Z,100563.31
2023-04-09T21:05:24.020Z,100557.09
2023-04-09T21:07:58.236Z,100561.72
2023-04-09T21:10:25.967Z,100558.31
2023-04-09T21:12:53.977Z,100557.50
2023-04-09T21:15:21.734Z,100552.41
2023-04-09T21:17:53.847Z,100556.03
2023-04-09T21:20:22.602Z,100550.81
2023-04-09T21:22:50.087Z,100548.41
2023-04-09T21:25:17.855Z,100529.72
2023-04-09T21:27:46.439Z,100533.34
2023-04-09T21:30:13.999Z,100529.00
2023-04-09T21:32:41.975Z,100520.25
2023-04-09T21:35:09.395Z,100511.53
2023-04-09T21:37:39.970Z,100506.44
2023-04-09T21:40:11.521Z,100499.44
2023-04-09T21:42:41.556Z,100506.69
2023-04-09T21:45:09.433Z,100500.66
2023-04-09T21:47:37.122Z,100492.88
2023-04-09T21:50:05.766Z,100480.53
2023-04-09T21:52:36.085Z,100479.78
2023-04-09T21:55:04.870Z,100469.28
2023-04-09T21:57:32.220Z,100473.75
2023-04-09T21:59:59.680Z,100465.03
2023-04-09T22:02:28.611Z,100460.78
2023-04-09T22:04:56.197Z,100455.56
2023-04-09T22:07:23.616Z,100454.84
2023-04-09T22:09:55.044Z,100447.22
2023-04-09T22:12:22.929Z,100444.69
2023-04-09T22:14:52.750Z,100439.59
2023-04-09T22:17:20.006Z,100429.16
2023-04-09T22:19:47.619Z,100429.16
2023-04-09T22:22:15.715Z,100429.16
2023-04-09T22:24:44.561Z,100419.59
2023-04-09T22:27:12.464Z,100401.06
2023-04-09T22:29:39.856Z,100404.72
2023-04-09T22:32:07.088Z,100407.47
2023-04-09T22:34:34.573Z,100402.53
2023-04-09T22:37:02.562Z,100396.47
2023-04-09T22:39:29.945Z,100390.28
2023-04-09T22:41:57.209Z,100388.00
2023-04-09T22:44:25.268Z,100372.97
2023-04-09T22:46:52.784Z,100372.97
2023-04-09T22:49:20.103Z,100357.94
2023-04-09T22:51:47.698Z,100363.53
2023-04-09T22:54:15.063Z,100351.44
2023-04-09T22:56:42.703Z,100335.59
2023-04-09T22:59:10.074Z,100340.06
2023-04-09T23:01:37.177Z,100343.81
2023-04-09T23:04:04.389Z,100325.28
2023-04-09T23:06:31.660Z,100321.75
2023-04-09T23:09:00.177Z,100311.25
2023-04-09T23:11:27.748Z,100299.03
2023-04-09T23:13:55.119Z,100291.19
2023-04-09T23:16:23.329Z,100290.56
2023-04-09T23:18:50.725Z,100290.56
2023-04-09T23:21:17.830Z,100290.66
2023-04-09T23:23:45.058Z,100289.00
2023-04-09T23:26:12.616Z,100281.97
2023-04-09T23:28:39.791Z,100275.91
2023-04-09T23:31:07.516Z,100273.50
2023-04-09T23:33:34.868Z,100263.69
2023-04-09T23:36:01.943Z,100256.66
2023-04-09T23:38:29.016Z,100241.78
2023-04-09T23:40:56.290Z,100240.13
2023-04-09T23:43:23.404Z,100227.91
2023-04-09T23:45:51.073Z,100228.88
2023-04-09T23:48:18.094Z,100220.03
2023-04-09T23:50:45.268Z,100225.59
2023-04-09T23:53:12.535Z,100217.84
2023-04-09T23:55:41.650Z,100203.81
2023-04-09T23:58:09.948Z,100203.81
